sensor_id;sensor_type;location;lat;lon;timestamp;pressure;altitude;pressure_sealevel;temperature;humidity
62510;BME280;48558;48.242;11.654;2024-01-11T00:00:18;97060.44;;;-5.25;100.00
62510;BME280;48558;48.242;11.654;2024-01-11T00:04:31;97062.38;;;-5.38;100.00
62510;BME280;48558;48.242;11.654;2024-01-11T00:08:44;97087.38;;;-4.97;100.00
62510;BME280;48558;48.242;11.654;2024-01-11T00:12:57;97095.50;;;-5.37;100.00
62510;BME280;48558;48.242;11.654;2024-01-11T00:17:10;97077.00;;;-5.11;100.00
62510;BME280;48558;48.242;11.654;2024-01-11T00:21:22;97087.84;;;-5.35;100.00
62510;BME280;48558;48.242;11.654;2024-01-11T00:25:35;97087.28;;;-5.29;100.00
62510;BME280;48558;48.242;11.654;2024-01-11T00:29:47;97090.03;;;-5.53;100.00
62510;BME280;48558;48.242;11.654;2024-01-11T00:34:00;97089.03;;;-5.60;100.00
62510;BME280;48558;48.242;11.654;2024-01-11T00:38:13;97085.59;;;-5.33;100.00
62510;BME280;48558;48.242;11.654;2024-01-11T00:42:26;97093.38;;;-5.04;100.00
62510;BME280;48558;48.242;11.654;2024-01-11T00:46:39;97084.06;;;-5.07;100.00
62510;BME280;48558;48.242;11.654;2024-01-11T00:50:53;97080.56;;;-5.87;100.00
62510;BME280;48558;48.242;11.654;2024-01-11T00:55:05;97081.88;;;-5.81;100.00
62510;BME280;48558;48.242;11.654;2024-01-11T00:59:19;97101.78;;;-5.97;100.00
62510;BME280;48558;48.242;11.654;2024-01-11T01:03:31;97098.72;;;-5.84;100.00
62510;BME280;48558;48.242;11.654;2024-01-11T01:07:44;97094.69;;;-5.90;100.00
62510;BME280;48558;48.242;11.654;2024-01-11T01:11:58;97093.81;;;-5.94;100.00
62510;BME280;48558;48.242;11.654;2024-01-11T01:16:10;97078.91;;;-5.91;100.00
62510;BME280;48558;48.242;11.654;2024-01-11T01:20:23;97082.78;;;-6.37;100.00
62510;BME280;48558;48.242;11.654;2024-01-11T01:24:35;97097.03;;;-6.12;100.00
62510;BME280;48558;48.242;11.654;2024-01-11T01:28:48;97073.97;;;-6.25;100.00
62510;BME280;48558;48.242;11.654;2024-01-11T01:33:00;97074.97;;;-6.30;100.00
62510;BME280;48558;48.242;11.654;2024-01-11T01:37:14;97104.06;;;-5.71;100.00
62510;BME280;48558;48.242;11.654;2024-01-11T01:41:26;97114.66;;;-6.03;100.00
62510;BME280;48558;48.242;11.654;2024-01-11T01:45:39;97114.63;;;-6.15;100.00
62510;BME280;48558;48.242;11.654;2024-01-11T01:49:52;97123.69;;;-6.19;100.00
62510;BME280;48558;48.242;11.654;2024-01-11T01:54:05;97137.81;;;-6.34;100.00
62510;BME280;48558;48.242;11.654;2024-01-11T01:58:18;97134.03;;;-6.66;100.00
62510;BME280;48558;48.242;11.654;2024-01-11T02:02:32;97119.31;;;-6.81;100.00
62510;BME280;48558;48.242;11.654;2024-01-11T02:06:47;97142.34;;;-6.59;100.00
62510;BME280;48558;48.242;11.654;2024-01-11T02:11:00;97119.28;;;-6.48;100.00
62510;BME280;48558;48.242;11.654;2024-01-11T02:15:14;97127.16;;;-6.43;100.00
62510;BME280;48558;48.242;11.654;2024-01-11T02:19:26;97119.28;;;-6.48;100.00
62510;BME280;48558;48.242;11.654;2024-01-11T02:23:43;97117.09;;;-6.10;100.00
62510;BME280;48558;48.242;11.654;2024-01-11T02:27:59;97107.69;;;-6.16;100.00
62510;BME280;48558;48.242;11.654;2024-01-11T02:32:12;97115.66;;;-6.07;100.00
62510;BME280;48558;48.242;11.654;2024-01-11T02:36:25;97119.53;;;-5.81;100.00
62510;BME280;48558;48.242;11.654;2024-01-11T02:40:38;97102.50;;;-5.72;100.00
62510;BME280;48558;48.242;11.654;2024-01-11T02:44:52;97102.25;;;-5.67;100.00
62510;BME280;48558;48.242;11.654;2024-01-11T02:49:05;97097.66;;;-5.67;100.00
62510;BME280;48558;48.242;11.654;2024-01-11T02:53:17;97105.47;;;-6.14;100.00
62510;BME280;48558;48.242;11.654;2024-01-11T02:57:33;97101.66;;;-6.01;100.00
62510;BME280;48558;48.242;11.654;2024-01-11T03:01:46;97105.91;;;-6.00;100.00
62510;BME280;48558;48.242;11.654;2024-01-11T03:05:58;97104.56;;;-6.06;100.00
62510;BME280;48558;48.242;11.654;2024-01-11T03:10:11;97111.84;;;-6.06;100.00
62510;BME280;48558;48.242;11.654;2024-01-11T03:14:24;97081.47;;;-5.95;100.00
62510;BME280;48558;48.242;11.654;2024-01-11T03:18:37;97089.31;;;-6.14;100.00
62510;BME280;48558;48.242;11.654;2024-01-11T03:22:50;97067.47;;;-6.00;100.00
62510;BME280;48558;48.242;11.654;2024-01-11T03:27:06;97083.47;;;-6.28;100.00
62510;BME280;48558;48.242;11.654;2024-01-11T03:31:19;97067.78;;;-6.38;100.00
62510;BME280;48558;48.242;11.654;2024-01-11T03:35:31;97051.09;;;-6.31;100.00
62510;BME280;48558;48.242;11.654;2024-01-11T03:39:44;97072.28;;;-6.06;100.00
62510;BME280;48558;48.242;11.654;2024-01-11T03:43:57;97041.22;;;-6.39;100.00
62510;BME280;48558;48.242;11.654;2024-01-11T03:48:09;97057.59;;;-6.32;100.00
62510;BME280;48558;48.242;11.654;2024-01-11T03:52:23;97063.19;;;-5.89;100.00
62510;BME280;48558;48.242;11.654;2024-01-11T03:56:38;97057.88;;;-5.73;100.00
62510;BME280;48558;48.242;11.654;2024-01-11T04:00:51;97050.25;;;-5.71;100.00
62510;BME280;48558;48.242;11.654;2024-01-11T04:05:04;97054.81;;;-6.36;100.00
62510;BME280;48558;48.242;11.654;2024-01-11T04:09:17;97052.34;;;-6.29;100.00
62510;BME280;48558;48.242;11.654;2024-01-11T04:13:30;97053.91;;;-6.16;100.00
62510;BME280;48558;48.242;11.654;2024-01-11T04:17:42;97053.78;;;-6.43;100.00
62510;BME280;48558;48.242;11.654;2024-01-11T04:21:55;97062.97;;;-6.32;100.00
62510;BME280;48558;48.242;11.654;2024-01-11T04:26:08;97080.09;;;-6.49;100.00
62510;BME280;48558;48.242;11.654;2024-01-11T04:30:20;97062.97;;;-6.89;100.00
62510;BME280;48558;48.242;11.654;2024-01-11T04:34:33;97067.09;;;-6.59;100.00
62510;BME280;48558;48.242;11.654;2024-01-11T04:38:46;97083.69;;;-6.33;100.00
62510;BME280;48558;48.242;11.654;2024-01-11T04:42:58;97073.97;;;-6.25;100.00
62510;BME280;48558;48.242;11.654;2024-01-11T04:47:11;97102.38;;;-6.61;100.00
62510;BME280;48558;48.242;11.654;2024-01-11T04:51:23;97094.97;;;-6.96;100.00
62510;BME280;48558;48.242;11.654;2024-01-11T04:55:36;97089.94;;;-6.65;100.00
62510;BME280;48558;48.242;11.654;2024-01-11T04:59:49;97077.63;;;-6.54;100.00
62510;BME280;48558;48.242;11.654;2024-01-11T05:04:03;97084.09;;;-6.55;100.00
62510;BME280;48558;48.242;11.654;2024-01-11T05:08:16;97078.72;;;-6.55;100.00
62510;BME280;48558;48.242;11.654;2024-01-11T05:12:29;97047.72;;;-6.52;100.00
62510;BME280;48558;48.242;11.654;2024-01-11T05:16:41;97079.22;;;-6.41;100.00
62510;BME280;48558;48.242;11.654;2024-01-11T05:20:54;97071.25;;;-6.49;100.00
62510;BME280;48558;48.242;11.654;2024-01-11T05:25:07;97074.88;;;-6.78;100.00
62510;BME280;48558;48.242;11.654;2024-01-11T05:29:20;97068.13;;;-6.51;100.00
62510;BME280;48558;48.242;11.654;2024-01-11T05:33:33;97090.38;;;-6.63;100.00
62510;BME280;48558;48.242;11.654;2024-01-11T05:37:46;97080.44;;;-6.95;100.00
62510;BME280;48558;48.242;11.654;2024-01-11T05:41:58;97077.91;;;-7.12;100.00
62510;BME280;48558;48.242;11.654;2024-01-11T05:46:11;97062.50;;;-6.59;100.00
62510;BME280;48558;48.242;11.654;2024-01-11T05:50:23;97065.88;;;-6.49;100.00
62510;BME280;48558;48.242;11.654;2024-01-11T05:54:36;97091.06;;;-6.54;100.00
62510;BME280;48558;48.242;11.654;2024-01-11T05:58:48;97090.53;;;-6.80;100.00
62510;BME280;48558;48.242;11.654;2024-01-11T06:03:01;97112.06;;;-6.68;100.00
62510;BME280;48558;48.242;11.654;2024-01-11T06:07:14;97111.34;;;-7.10;100.00
62510;BME280;48558;48.242;11.654;2024-01-11T06:11:26;97123.69;;;-7.09;100.00
62510;BME280;48558;48.242;11.654;2024-01-11T06:15:40;97125.22;;;-6.87;100.00
62510;BME280;48558;48.242;11.654;2024-01-11T06:19:53;97125.25;;;-7.08;100.00
62510;BME280;48558;48.242;11.654;2024-01-11T06:24:06;97125.38;;;-7.04;100.00
62510;BME280;48558;48.242;11.654;2024-01-11T06:28:18;97127.41;;;-7.01;100.00
62510;BME280;48558;48.242;11.654;2024-01-11T06:32:31;97135.34;;;-7.25;100.00
62510;BME280;48558;48.242;11.654;2024-01-11T06:36:43;97129.84;;;-7.29;100.00
62510;BME280;48558;48.242;11.654;2024-01-11T06:40:56;97135.25;;;-6.96;100.00
62510;BME280;48558;48.242;11.654;2024-01-11T06:45:09;97150.25;;;-7.37;100.00
62510;BME280;48558;48.242;11.654;2024-01-11T06:49:22;97151.38;;;-6.96;100.00
62510;BME280;48558;48.242;11.654;2024-01-11T06:53:36;97145.41;;;-6.81;100.00
62510;BME280;48558;48.242;11.654;2024-01-11T06:57:49;97149.94;;;-6.61;100.00
62510;BME280;48558;48.242;11.654;2024-01-11T07:02:01;97150.09;;;-6.78;100.00
62510;BME280;48558;48.242;11.654;2024-01-11T07:06:15;97161.78;;;-6.74;100.00
62510;BME280;48558;48.242;11.654;2024-01-11T07:10:28;97166.91;;;-7.22;100.00
62510;BME280;48558;48.242;11.654;2024-01-11T07:14:42;97167.38;;;-7.20;100.00
62510;BME280;48558;48.242;11.654;2024-01-11T07:18:54;97172.00;;;-6.88;100.00
62510;BME280;48558;48.242;11.654;2024-01-11T07:23:07;97158.66;;;-6.64;100.00
62510;BME280;48558;48.242;11.654;2024-01-11T07:27:20;97167.47;;;-6.43;100.00
62510;BME280;48558;48.242;11.654;2024-01-11T07:31:32;97146.88;;;-6.39;100.00
62510;BME280;48558;48.242;11.654;2024-01-11T07:35:45;97166.38;;;-6.30;100.00
62510;BME280;48558;48.242;11.654;2024-01-11T07:39:58;97146.00;;;-6.19;100.00
62510;BME280;48558;48.242;11.654;2024-01-11T07:44:10;97159.38;;;-5.98;100.00
62510;BME280;48558;48.242;11.654;2024-01-11T07:48:23;97153.06;;;-5.78;100.00
62510;BME280;48558;48.242;11.654;2024-01-11T07:52:36;97156.91;;;-5.79;100.00
62510;BME280;48558;48.242;11.654;2024-01-11T07:56:49;97145.78;;;-5.77;100.00
62510;BME280;48558;48.242;11.654;2024-01-11T08:01:02;97129.19;;;-5.79;100.00
62510;BME280;48558;48.242;11.654;2024-01-11T08:05:15;97166.66;;;-5.99;100.00
62510;BME280;48558;48.242;11.654;2024-01-11T08:09:28;97189.31;;;-5.63;100.00
62510;BME280;48558;48.242;11.654;2024-01-11T08:13:41;97207.47;;;-5.48;100.00
62510;BME280;48558;48.242;11.654;2024-01-11T08:17:54;97191.75;;;-5.83;100.00
62510;BME280;48558;48.242;11.654;2024-01-11T08:22:06;97198.28;;;-5.47;100.00
62510;BME280;48558;48.242;11.654;2024-01-11T08:26:19;97201.88;;;-5.43;100.00
62510;BME280;48558;48.242;11.654;2024-01-11T08:30:31;97208.81;;;-5.78;100.00
62510;BME280;48558;48.242;11.654;2024-01-11T08:34:44;97230.16;;;-5.61;100.00
62510;BME280;48558;48.242;11.654;2024-01-11T08:38:57;97241.34;;;-5.71;100.00
62510;BME280;48558;48.242;11.654;2024-01-11T08:43:10;97248.25;;;-6.07;100.00
62510;BME280;48558;48.242;11.654;2024-01-11T08:47:22;97233.13;;;-6.11;100.00
62510;BME280;48558;48.242;11.654;2024-01-11T08:51:35;97248.94;;;-6.42;100.00
62510;BME280;48558;48.242;11.654;2024-01-11T08:55:47;97251.81;;;-6.47;100.00
62510;BME280;48558;48.242;11.654;2024-01-11T09:00:00;97267.94;;;-6.15;100.00
62510;BME280;48558;48.242;11.654;2024-01-11T09:04:13;97277.78;;;-6.19;100.00
62510;BME280;48558;48.242;11.654;2024-01-11T09:08:25;97261.22;;;-6.21;100.00
62510;BME280;48558;48.242;11.654;2024-01-11T09:12:38;97274.78;;;-5.72;100.00
62510;BME280;48558;48.242;11.654;2024-01-11T09:16:51;97240.03;;;-5.41;100.00
62510;BME280;48558;48.242;11.654;2024-01-11T09:21:04;97227.22;;;-5.44;100.00
62510;BME280;48558;48.242;11.654;2024-01-11T09:25:16;97227.06;;;-4.99;100.00
62510;BME280;48558;48.242;11.654;2024-01-11T09:29:29;97240.09;;;-4.50;100.00
62510;BME280;48558;48.242;11.654;2024-01-11T09:33:42;97244.75;;;-4.07;100.00
62510;BME280;48558;48.242;11.654;2024-01-11T09:37:57;97226.59;;;-3.94;100.00
62510;BME280;48558;48.242;11.654;2024-01-11T09:42:10;97231.31;;;-3.76;100.00
62510;BME280;48558;48.242;11.654;2024-01-11T09:46:23;97221.91;;;-3.35;97.89
62510;BME280;48558;48.242;11.654;2024-01-11T09:50:37;97214.25;;;-3.48;96.09
62510;BME280;48558;48.242;11.654;2024-01-11T09:54:51;97210.31;;;-3.51;96.92
62510;BME280;48558;48.242;11.654;2024-01-11T09:59:04;97222.25;;;-3.83;98.89
62510;BME280;48558;48.242;11.654;2024-01-11T10:03:22;97234.03;;;-4.47;100.00
62510;BME280;48558;48.242;11.654;2024-01-11T10:07:37;97205.06;;;-4.06;100.00
62510;BME280;48558;48.242;11.654;2024-01-11T10:11:57;97214.72;;;-4.61;100.00
62510;BME280;48558;48.242;11.654;2024-01-11T10:16:10;97206.31;;;-3.73;100.00
62510;BME280;48558;48.242;11.654;2024-01-11T10:20:25;97211.59;;;-3.29;96.71
62510;BME280;48558;48.242;11.654;2024-01-11T10:24:40;97213.72;;;-2.69;94.10
62510;BME280;48558;48.242;11.654;2024-01-11T10:28:53;97205.97;;;-2.89;90.52
62510;BME280;48558;48.242;11.654;2024-01-11T10:33:07;97191.84;;;-2.99;93.50
62510;BME280;48558;48.242;11.654;2024-01-11T10:37:21;97181.47;;;-2.97;94.34
62510;BME280;48558;48.242;11.654;2024-01-11T10:41:47;97201.88;;;-3.49;96.75
62510;BME280;48558;48.242;11.654;2024-01-11T10:46:04;97191.03;;;-3.34;97.46
62510;BME280;48558;48.242;11.654;2024-01-11T10:50:19;97192.69;;;-3.29;96.92
62510;BME280;48558;48.242;11.654;2024-01-11T10:54:33;97170.56;;;-3.00;96.73
62510;BME280;48558;48.242;11.654;2024-01-11T10:58:46;97187.63;;;-2.96;96.35
62510;BME280;48558;48.242;11.654;2024-01-11T11:03:00;97174.94;;;-2.57;94.85
62510;BME280;48558;48.242;11.654;2024-01-11T11:07:15;97167.41;;;-2.67;93.65
62510;BME280;48558;48.242;11.654;2024-01-11T11:11:30;97183.06;;;-2.76;95.76
62510;BME280;48558;48.242;11.654;2024-01-11T11:15:45;97182.91;;;-2.83;94.97
62510;BME280;48558;48.242;11.654;2024-01-11T11:19:59;97185.59;;;-2.83;92.85
62510;BME280;48558;48.242;11.654;2024-01-11T11:24:12;97170.69;;;-2.58;92.53
62510;BME280;48558;48.242;11.654;2024-01-11T11:28:25;97195.09;;;-2.55;95.84
62510;BME280;48558;48.242;11.654;2024-01-11T11:32:42;97171.34;;;-3.00;95.85
62510;BME280;48558;48.242;11.654;2024-01-11T11:36:56;97177.00;;;-2.32;94.69
62510;BME280;48558;48.242;11.654;2024-01-11T11:41:09;97155.16;;;-2.42;92.14
62510;BME280;48558;48.242;11.654;2024-01-11T11:45:25;97184.47;;;-2.63;91.56
62510;BME280;48558;48.242;11.654;2024-01-11T11:54:17;97161.75;;;-1.53;89.09
62510;BME280;48558;48.242;11.654;2024-01-11T11:58:32;97177.72;;;-1.93;89.75
62510;BME280;48558;48.242;11.654;2024-01-11T12:02:47;97165.78;;;-2.11;89.22
62510;BME280;48558;48.242;11.654;2024-01-11T12:07:02;97181.25;;;-1.89;87.64
62510;BME280;48558;48.242;11.654;2024-01-11T12:11:21;97149.78;;;-1.52;87.41
62510;BME280;48558;48.242;11.654;2024-01-11T12:15:34;97142.97;;;-2.10;87.86
62510;BME280;48558;48.242;11.654;2024-01-11T12:19:47;97120.28;;;-1.57;89.31
62510;BME280;48558;48.242;11.654;2024-01-11T12:24:00;97131.00;;;-1.64;87.95
62510;BME280;48558;48.242;11.654;2024-01-11T12:28:14;97142.91;;;-1.46;88.30
62510;BME280;48558;48.242;11.654;2024-01-11T12:32:27;97156.84;;;-1.17;84.85
62510;BME280;48558;48.242;11.654;2024-01-11T12:36:42;97151.28;;;-1.54;84.44
62510;BME280;48558;48.242;11.654;2024-01-11T12:40:54;97155.38;;;-1.64;88.51
62510;BME280;48558;48.242;11.654;2024-01-11T12:45:07;97144.66;;;-1.30;87.84
62510;BME280;48558;48.242;11.654;2024-01-11T12:49:22;97141.78;;;-1.15;88.64
62510;BME280;48558;48.242;11.654;2024-01-11T12:53:35;97123.78;;;-1.56;89.49
62510;BME280;48558;48.242;11.654;2024-01-11T12:57:48;97107.25;;;-1.48;90.38
62510;BME280;48558;48.242;11.654;2024-01-11T13:02:01;97138.59;;;-1.73;89.30
62510;BME280;48558;48.242;11.654;2024-01-11T13:06:15;97143.09;;;-1.58;90.15
62510;BME280;48558;48.242;11.654;2024-01-11T13:10:30;97130.88;;;-1.71;90.22
62510;BME280;48558;48.242;11.654;2024-01-11T13:14:43;97117.56;;;-1.30;90.56
62510;BME280;48558;48.242;11.654;2024-01-11T13:18:56;97120.06;;;-1.45;89.30
62510;BME280;48558;48.242;11.654;2024-01-11T13:23:15;97127.13;;;-1.63;91.83
62510;BME280;48558;48.242;11.654;2024-01-11T13:27:30;97132.13;;;-2.10;91.80
62510;BME280;48558;48.242;11.654;2024-01-11T13:31:44;97141.25;;;-2.41;96.91
62510;BME280;48558;48.242;11.654;2024-01-11T13:35:57;97150.31;;;-2.71;100.00
62510;BME280;48558;48.242;11.654;2024-01-11T13:40:10;97158.66;;;-3.15;100.00
62510;BME280;48558;48.242;11.654;2024-01-11T13:44:25;97158.25;;;-2.98;100.00
62510;BME280;48558;48.242;11.654;2024-01-11T13:48:38;97154.47;;;-3.12;100.00
62510;BME280;48558;48.242;11.654;2024-01-11T13:52:51;97157.13;;;-3.31;100.00
62510;BME280;48558;48.242;11.654;2024-01-11T13:57:04;97168.19;;;-3.36;100.00
62510;BME280;48558;48.242;11.654;2024-01-11T14:01:17;97162.84;;;-3.17;100.00
62510;BME280;48558;48.242;11.654;2024-01-11T14:05:29;97154.97;;;-3.57;100.00
62510;BME280;48558;48.242;11.654;2024-01-11T14:09:42;97153.00;;;-3.60;100.00
62510;BME280;48558;48.242;11.654;2024-01-11T14:13:55;97179.63;;;-3.43;100.00
62510;BME280;48558;48.242;11.654;2024-01-11T14:18:07;97174.41;;;-3.01;100.00
62510;BME280;48558;48.242;11.654;2024-01-11T14:22:21;97171.75;;;-3.17;100.00
62510;BME280;48558;48.242;11.654;2024-01-11T14:26:35;97153.81;;;-3.25;100.00
62510;BME280;48558;48.242;11.654;2024-01-11T14:30:48;97178.16;;;-3.40;100.00
62510;BME280;48558;48.242;11.654;2024-01-11T14:35:01;97190.72;;;-3.79;100.00
62510;BME280;48558;48.242;11.654;2024-01-11T14:39:17;97190.09;;;-3.57;100.00
62510;BME280;48558;48.242;11.654;2024-01-11T14:43:30;97191.84;;;-3.49;100.00
62510;BME280;48558;48.242;11.654;2024-01-11T14:47:43;97184.81;;;-3.69;100.00
62510;BME280;48558;48.242;11.654;2024-01-11T14:51:59;97201.50;;;-3.17;100.00
62510;BME280;48558;48.242;11.654;2024-01-11T14:56:11;97197.63;;;-3.16;100.00
62510;BME280;48558;48.242;11.654;2024-01-11T15:00:24;97177.28;;;-3.44;100.00
62510;BME280;48558;48.242;11.654;2024-01-11T15:04:37;97177.78;;;-3.39;100.00
62510;BME280;48558;48.242;11.654;2024-01-11T15:08:50;97176.44;;;-3.48;100.00
62510;BME280;48558;48.242;11.654;2024-01-11T15:13:03;97186.09;;;-3.47;100.00
62510;BME280;48558;48.242;11.654;2024-01-11T15:17:17;97180.84;;;-3.40;100.00
62510;BME280;48558;48.242;11.654;2024-01-11T15:21:32;97182.88;;;-3.84;100.00
62510;BME280;48558;48.242;11.654;2024-01-11T15:25:48;97194.44;;;-3.68;100.00
62510;BME280;48558;48.242;11.654;2024-01-11T15:30:02;97200.72;;;-3.95;100.00
62510;BME280;48558;48.242;11.654;2024-01-11T15:34:17;97193.41;;;-3.95;100.00
62510;BME280;48558;48.242;11.654;2024-01-11T15:38:31;97209.34;;;-4.05;100.00
62510;BME280;48558;48.242;11.654;2024-01-11T15:42:47;97112.97;;;-4.91;100.00
62510;BME280;48558;48.242;11.654;2024-01-11T15:46:59;97215.03;;;-4.22;100.00
62510;BME280;48558;48.242;11.654;2024-01-11T15:51:12;97234.34;;;-4.20;100.00
62510;BME280;48558;48.242;11.654;2024-01-11T15:55:24;97235.59;;;-4.46;100.00
62510;BME280;48558;48.242;11.654;2024-01-11T15:59:37;97217.41;;;-4.49;100.00
62510;BME280;48558;48.242;11.654;2024-01-11T16:03:50;97225.72;;;-4.26;100.00
62510;BME280;48558;48.242;11.654;2024-01-11T16:08:04;97236.16;;;-4.24;100.00
62510;BME280;48558;48.242;11.654;2024-01-11T16:12:17;97250.28;;;-4.15;100.00
62510;BME280;48558;48.242;11.654;2024-01-11T16:16:32;97264.78;;;-4.08;100.00
62510;BME280;48558;48.242;11.654;2024-01-11T16:20:46;97272.09;;;-4.08;100.00
62510;BME280;48558;48.242;11.654;2024-01-11T16:25:00;97247.78;;;-4.08;100.00
62510;BME280;48558;48.242;11.654;2024-01-11T16:29:13;97237.31;;;-4.25;100.00
62510;BME280;48558;48.242;11.654;2024-01-11T16:33:25;97240.88;;;-4.49;100.00
62510;BME280;48558;48.242;11.654;2024-01-11T16:37:39;97247.03;;;-4.37;100.00
62510;BME280;48558;48.242;11.654;2024-01-11T16:41:52;97246.19;;;-4.53;100.00
62510;BME280;48558;48.242;11.654;2024-01-11T16:46:04;97230.44;;;-4.51;100.00
62510;BME280;48558;48.242;11.654;2024-01-11T16:50:17;97256.47;;;-4.43;100.00
62510;BME280;48558;48.242;11.654;2024-01-11T16:54:30;97261.31;;;-4.88;100.00
62510;BME280;48558;48.242;11.654;2024-01-11T16:58:43;97265.38;;;-4.54;100.00
62510;BME280;48558;48.242;11.654;2024-01-11T17:02:55;97272.59;;;-4.70;100.00
62510;BME280;48558;48.242;11.654;2024-01-11T17:07:09;97255.97;;;-4.60;100.00
62510;BME280;48558;48.242;11.654;2024-01-11T17:11:22;97294.00;;;-4.38;100.00
62510;BME280;48558;48.242;11.654;2024-01-11T17:15:35;97275.34;;;-4.43;100.00
62510;BME280;48558;48.242;11.654;2024-01-11T17:19:47;97293.28;;;-4.62;100.00
62510;BME280;48558;48.242;11.654;2024-01-11T17:24:01;97270.47;;;-4.65;100.00
62510;BME280;48558;48.242;11.654;2024-01-11T17:28:13;97286.06;;;-4.46;100.00
62510;BME280;48558;48.242;11.654;2024-01-11T17:32:26;97264.88;;;-4.32;100.00
62510;BME280;48558;48.242;11.654;2024-01-11T17:36:39;97277.44;;;-4.24;100.00
62510;BME280;48558;48.242;11.654;2024-01-11T17:40:52;97266.81;;;-4.45;100.00
62510;BME280;48558;48.242;11.654;2024-01-11T17:45:05;97272.63;;;-4.30;100.00
62510;BME280;48558;48.242;11.654;2024-01-11T17:49:18;97263.47;;;-4.54;100.00
62510;BME280;48558;48.242;11.654;2024-01-11T17:53:31;97271.03;;;-4.31;100.00
62510;BME280;48558;48.242;11.654;2024-01-11T17:57:45;97272.84;;;-4.23;100.00
62510;BME280;48558;48.242;11.654;2024-01-11T18:01:58;97281.00;;;-4.20;100.00
62510;BME280;48558;48.242;11.654;2024-01-11T18:06:11;97258.19;;;-4.22;100.00
62510;BME280;48558;48.242;11.654;2024-01-11T18:10:24;97256.84;;;-4.16;100.00
62510;BME280;48558;48.242;11.654;2024-01-11T18:14:36;97255.81;;;-4.52;100.00
62510;BME280;48558;48.242;11.654;2024-01-11T18:18:49;97277.28;;;-4.15;100.00
62510;BME280;48558;48.242;11.654;2024-01-11T18:23:02;97279.13;;;-4.31;100.00
62510;BME280;48558;48.242;11.654;2024-01-11T18:27:15;97296.78;;;-4.34;100.00
62510;BME280;48558;48.242;11.654;2024-01-11T18:31:27;97304.56;;;-4.32;100.00
62510;BME280;48558;48.242;11.654;2024-01-11T18:35:40;97294.41;;;-4.23;100.00
62510;BME280;48558;48.242;11.654;2024-01-11T18:39:52;97293.28;;;-4.22;100.00
62510;BME280;48558;48.242;11.654;2024-01-11T18:44:05;97299.38;;;-4.25;100.00
62510;BME280;48558;48.242;11.654;2024-01-11T18:48:18;97291.91;;;-4.56;100.00
62510;BME280;48558;48.242;11.654;2024-01-11T18:52:31;97306.44;;;-4.73;100.00
62510;BME280;48558;48.242;11.654;2024-01-11T18:56:43;97297.66;;;-4.58;100.00
62510;BME280;48558;48.242;11.654;2024-01-11T19:00:56;97298.97;;;-4.52;100.00
62510;BME280;48558;48.242;11.654;2024-01-11T19:05:09;97286.06;;;-4.46;100.00
62510;BME280;48558;48.242;11.654;2024-01-11T19:09:26;97314.00;;;-4.39;100.00
62510;BME280;48558;48.242;11.654;2024-01-11T19:13:39;97293.84;;;-4.69;100.00
62510;BME280;48558;48.242;11.654;2024-01-11T19:17:52;97302.47;;;-4.51;100.00
62510;BME280;48558;48.242;11.654;2024-01-11T19:22:04;97316.53;;;-4.58;100.00
62510;BME280;48558;48.242;11.654;2024-01-11T19:26:17;97315.28;;;-4.48;100.00
62510;BME280;48558;48.242;11.654;2024-01-11T19:30:30;97318.22;;;-4.53;100.00
62510;BME280;48558;48.242;11.654;2024-01-11T19:34:46;97327.78;;;-4.68;100.00
62510;BME280;48558;48.242;11.654;2024-01-11T19:38:58;97314.41;;;-4.76;100.00
62510;BME280;48558;48.242;11.654;2024-01-11T19:43:12;97309.03;;;-4.64;100.00
62510;BME280;48558;48.242;11.654;2024-01-11T19:47:26;97314.50;;;-4.61;100.00
62510;BME280;48558;48.242;11.654;2024-01-11T19:51:39;97304.34;;;-4.40;100.00
62510;BME280;48558;48.242;11.654;2024-01-11T19:55:52;97297.44;;;-4.53;100.00
62510;BME280;48558;48.242;11.654;2024-01-11T20:00:05;97303.94;;;-4.54;100.00
62510;BME280;48558;48.242;11.654;2024-01-11T20:04:19;97292.72;;;-4.68;100.00
62510;BME280;48558;48.242;11.654;2024-01-11T20:08:35;97289.44;;;-4.49;100.00
62510;BME280;48558;48.242;11.654;2024-01-11T20:12:50;97238.53;;;-5.27;100.00
62510;BME280;48558;48.242;11.654;2024-01-11T20:17:03;97294.06;;;-4.62;100.00
62510;BME280;48558;48.242;11.654;2024-01-11T20:21:16;97294.69;;;-4.41;100.00
62510;BME280;48558;48.242;11.654;2024-01-11T20:25:29;97302.03;;;-4.53;100.00
62510;BME280;48558;48.242;11.654;2024-01-11T20:29:41;97279.81;;;-4.62;100.00
62510;BME280;48558;48.242;11.654;2024-01-11T20:33:54;97287.06;;;-4.51;100.00
62510;BME280;48558;48.242;11.654;2024-01-11T20:38:08;97261.50;;;-4.69;100.00
62510;BME280;48558;48.242;11.654;2024-01-11T20:42:20;97287.16;;;-4.87;100.00
62510;BME280;48558;48.242;11.654;2024-01-11T20:46:33;97305.97;;;-4.75;100.00
62510;BME280;48558;48.242;11.654;2024-01-11T20:50:46;97336.66;;;-4.67;100.00
62510;BME280;48558;48.242;11.654;2024-01-11T20:54:59;97334.38;;;-4.53;100.00
62510;BME280;48558;48.242;11.654;2024-01-11T20:59:12;97336.28;;;-4.54;100.00
62510;BME280;48558;48.242;11.654;2024-01-11T21:03:25;97349.81;;;-4.90;100.00
62510;BME280;48558;48.242;11.654;2024-01-11T21:07:38;97352.50;;;-4.78;100.00
62510;BME280;48558;48.242;11.654;2024-01-11T21:11:50;97342.16;;;-4.76;100.00
62510;BME280;48558;48.242;11.654;2024-01-11T21:16:03;97340.34;;;-4.84;100.00
62510;BME280;48558;48.242;11.654;2024-01-11T21:20:16;97340.16;;;-4.91;100.00
62510;BME280;48558;48.242;11.654;2024-01-11T21:24:29;97345.63;;;-4.63;100.00
62510;BME280;48558;48.242;11.654;2024-01-11T21:28:41;97335.19;;;-4.65;100.00
62510;BME280;48558;48.242;11.654;2024-01-11T21:32:54;97330.16;;;-4.78;100.00
62510;BME280;48558;48.242;11.654;2024-01-11T21:37:07;97348.00;;;-4.62;100.00
62510;BME280;48558;48.242;11.654;2024-01-11T21:41:21;97345.50;;;-4.43;100.00
62510;BME280;48558;48.242;11.654;2024-01-11T21:45:34;97354.75;;;-4.80;100.00
62510;BME280;48558;48.242;11.654;2024-01-11T21:49:49;97351.16;;;-4.72;100.00